createdAt,value
2018-02-16T00:01:59.393Z,16.93
2018-02-16T00:04:26.902Z,15.37
2018-02-16T00:06:54.383Z,15.30
2018-02-16T00:09:21.886Z,15.47
2018-02-16T00:11:50.143Z,15.37
2018-02-16T00:14:17.656Z,16.97
2018-02-16T00:16:45.161Z,15.13
2018-02-16T00:19:13.440Z,16.80
2018-02-16T00:21:41.713Z,12.93
2018-02-16T00:24:09.977Z,13.17
2018-02-16T00:26:37.499Z,13.40
2018-02-16T00:29:05.009Z,15.00
2018-02-16T00:31:33.273Z,12.57
2018-02-16T00:34:01.536Z,15.23
2018-02-16T00:36:29.018Z,13.00
2018-02-16T00:38:57.290Z,13.93
2018-02-16T00:41:25.591Z,14.60
2018-02-16T00:43:53.075Z,13.13
2018-02-16T00:46:20.582Z,12.07
2018-02-16T00:48:48.847Z,11.80
2018-02-16T00:51:17.877Z,11.20
2018-02-16T00:53:45.383Z,13.23
2018-02-16T00:56:12.921Z,13.37
2018-02-16T00:58:40.444Z,11.70
2018-02-16T01:01:07.967Z,11.23
2018-02-16T01:03:36.291Z,14.10
2018-02-16T01:06:03.801Z,11.50
2018-02-16T01:08:32.097Z,11.60
2018-02-16T01:10:59.654Z,11.80
2018-02-16T01:13:27.201Z,12.13
2018-02-16T01:15:55.473Z,13.00
2018-02-16T01:18:23.754Z,14.20
2018-02-16T01:20:51.310Z,12.00
2018-02-16T01:23:18.867Z,12.40
2018-02-16T01:25:46.428Z,12.30
2018-02-16T01:28:13.983Z,12.37
2018-02-16T01:30:41.510Z,13.43
2018-02-16T01:33:09.047Z,13.57
2018-02-16T01:35:36.548Z,13.33
2018-02-16T01:38:04.812Z,13.83
2018-02-16T01:40:33.099Z,13.67
2018-02-16T01:43:01.367Z,14.23
2018-02-16T01:45:29.620Z,13.10
2018-02-16T01:47:57.213Z,14.23
2018-02-16T01:50:24.731Z,13.40
2018-02-16T01:52:52.224Z,14.33
2018-02-16T01:55:19.731Z,13.70
2018-02-16T01:57:47.276Z,16.10
2018-02-16T02:00:14.814Z,15.30
2018-02-16T02:02:42.326Z,15.50
2018-02-16T02:05:09.822Z,15.20
2018-02-16T02:07:37.356Z,15.90
2018-02-16T02:10:05.621Z,14.00
2018-02-16T02:12:33.885Z,16.90
2018-02-16T02:15:01.391Z,15.90
2018-02-16T02:17:28.922Z,15.87
2018-02-16T02:19:57.213Z,16.53
2018-02-16T02:22:24.700Z,17.20
2018-02-16T02:24:52.183Z,15.37
2018-02-16T02:27:19.709Z,16.10
2018-02-16T02:29:47.196Z,15.10
2018-02-16T02:32:14.737Z,16.53
2018-02-16T02:34:42.223Z,15.73
2018-02-16T02:37:10.507Z,17.43
2018-02-16T02:39:38.150Z,15.37
2018-02-16T02:42:05.755Z,15.07
2018-02-16T02:44:33.298Z,14.80
2018-02-16T02:47:00.750Z,15.07
2018-02-16T02:49:29.027Z,15.37
2018-02-16T02:51:56.583Z,15.13
2018-02-16T02:54:24.128Z,13.93
2018-02-16T02:56:52.393Z,15.30
2018-02-16T02:59:20.664Z,13.63
2018-02-16T03:01:48.946Z,15.27
2018-02-16T03:04:17.206Z,13.57
2018-02-16T03:06:44.706Z,13.50
2018-02-16T03:09:12.205Z,13.40
2018-02-16T03:11:39.807Z,13.43
2018-02-16T03:14:08.083Z,13.30
2018-02-16T03:16:36.341Z,14.47
2018-02-16T03:19:04.606Z,12.90
2018-02-16T03:21:32.192Z,13.90
2018-02-16T03:23:59.691Z,13.67
2018-02-16T03:26:28.157Z,14.40
2018-02-16T03:28:55.692Z,13.37
2018-02-16T03:31:23.275Z,13.07
2018-02-16T03:33:50.791Z,12.60
2018-02-16T03:36:21.001Z,12.53
2018-02-16T03:38:49.280Z,13.17
2018-02-16T03:41:17.560Z,12.70
2018-02-16T03:43:45.839Z,12.40
2018-02-16T03:46:14.220Z,11.67
2018-02-16T03:48:41.773Z,12.60
2018-02-16T03:51:10.090Z,12.30
2018-02-16T03:53:37.630Z,11.40
2018-02-16T03:56:05.146Z,10.83
2018-02-16T03:58:33.409Z,12.30
2018-02-16T04:01:01.714Z,12.13
2018-02-16T04:03:29.993Z,10.87
2018-02-16T04:05:57.553Z,12.70
2018-02-16T04:08:25.113Z,11.53
2018-02-16T04:10:52.603Z,11.43
2018-02-16T04:13:20.086Z,12.63
2018-02-16T04:15:47.701Z,12.80
2018-02-16T04:18:15.227Z,12.80
2018-02-16T04:20:43.501Z,13.00
2018-02-16T04:23:11.773Z,11.90
2018-02-16T04:25:40.032Z,12.40
2018-02-16T04:28:07.529Z,12.50
2018-02-16T04:30:35.099Z,12.73
2018-02-16T04:33:03.470Z,12.20
2018-02-16T04:35:30.975Z,13.90
2018-02-16T04:37:58.485Z,13.20
2018-02-16T04:40:26.001Z,12.27
2018-02-16T04:42:54.304Z,13.37
2018-02-16T04:45:21.859Z,13.67
2018-02-16T04:47:49.355Z,14.57
2018-02-16T04:50:16.904Z,14.50
2018-02-16T04:52:44.402Z,14.17
2018-02-16T04:55:11.979Z,15.97
2018-02-16T04:57:40.283Z,13.30
2018-02-16T05:00:07.812Z,14.67
2018-02-16T05:02:36.079Z,14.10
2018-02-16T05:05:04.368Z,14.40
2018-02-16T05:07:31.919Z,15.17
2018-02-16T05:10:00.196Z,13.23
2018-02-16T05:12:28.462Z,15.90
2018-02-16T05:14:56.851Z,16.60
2018-02-16T05:17:24.528Z,14.30
2018-02-16T05:19:52.040Z,14.20
2018-02-16T05:22:19.634Z,15.30
2018-02-16T05:24:47.141Z,14.27
2018-02-16T05:27:14.656Z,14.70
2018-02-16T05:29:42.139Z,14.27
2018-02-16T05:32:09.637Z,15.27
2018-02-16T05:34:37.185Z,15.33
2018-02-16T05:37:04.695Z,16.10
2018-02-16T05:39:32.323Z,14.60
2018-02-16T05:42:00.575Z,15.10
2018-02-16T05:44:28.073Z,14.20
2018-02-16T05:46:55.580Z,15.90
2018-02-16T05:49:23.111Z,14.10
2018-02-16T05:51:50.608Z,14.17
2018-02-16T05:54:18.910Z,15.27
2018-02-16T05:56:46.421Z,13.00
2018-02-16T05:59:14.039Z,13.23
2018-02-16T06:01:41.540Z,13.60
2018-02-16T06:04:09.159Z,13.17
2018-02-16T06:06:36.647Z,12.23
2018-02-16T06:09:04.272Z,11.10
2018-02-16T06:11:31.794Z,12.40
2018-02-16T06:14:00.080Z,13.53
2018-02-16T06:16:27.636Z,12.33
2018-02-16T06:18:55.133Z,11.50
2018-02-16T06:21:22.619Z,11.03
2018-02-16T06:23:50.124Z,11.50
2018-02-16T06:26:17.625Z,10.50
2018-02-16T06:28:45.177Z,13.10
2018-02-16T06:31:12.675Z,13.23
2018-02-16T06:33:40.970Z,12.83
2018-02-16T06:36:08.479Z,14.83
2018-02-16T06:38:35.968Z,15.73
2018-02-16T06:41:03.482Z,13.30
2018-02-16T06:43:30.983Z,13.47
2018-02-16T06:45:58.505Z,12.90
2018-02-16T06:48:26.002Z,11.07
2018-02-16T06:50:53.548Z,9.67
2018-02-16T06:53:21.127Z,8.63
2018-02-16T06:55:48.610Z,9.83
2018-02-16T06:58:16.138Z,8.73
2018-02-16T07:00:43.628Z,10.00
2018-02-16T07:03:11.124Z,10.53
2018-02-16T07:05:39.400Z,9.47
2018-02-16T07:08:07.650Z,9.73
2018-02-16T07:10:35.151Z,9.40
2018-02-16T07:13:02.696Z,8.67
2018-02-16T07:15:30.220Z,7.70
2018-02-16T07:17:57.724Z,8.67
2018-02-16T07:20:25.225Z,7.93
2018-02-16T07:22:52.736Z,7.60
2018-02-16T07:25:20.224Z,7.77
2018-02-16T07:27:47.740Z,8.60
2018-02-16T07:30:15.214Z,7.13
2018-02-16T07:32:42.726Z,8.73
2018-02-16T07:35:10.204Z,7.77
2018-02-16T07:37:38.445Z,7.77
2018-02-16T07:40:05.942Z,7.27
2018-02-16T07:42:33.437Z,7.93
2018-02-16T07:45:00.948Z,7.30
2018-02-16T07:47:29.225Z,6.90
2018-02-16T07:49:56.828Z,6.80
2018-02-16T07:52:24.326Z,6.50
2018-02-16T07:54:52.598Z,5.23
2018-02-16T07:57:20.107Z,4.83
2018-02-16T07:59:47.592Z,5.00
2018-02-16T08:02:15.099Z,4.80
2018-02-16T08:04:42.643Z,4.67
2018-02-16T08:07:10.269Z,5.10
2018-02-16T08:09:37.769Z,4.43
2018-02-16T08:12:05.299Z,4.37
2018-02-16T08:14:33.559Z,3.97
2018-02-16T08:17:01.049Z,3.43
2018-02-16T08:19:28.539Z,3.10
2018-02-16T08:21:56.024Z,3.60
2018-02-16T08:24:23.655Z,3.77
2018-02-16T08:26:51.126Z,4.10
2018-02-16T08:29:18.645Z,4.43
2018-02-16T08:31:46.154Z,4.00
2018-02-16T08:34:14.406Z,4.20
2018-02-16T08:36:41.923Z,3.97
2018-02-16T08:39:09.426Z,4.57
2018-02-16T08:41:37.031Z,4.10
2018-02-16T08:44:04.578Z,4.70
2018-02-16T08:46:32.836Z,4.53
2018-02-16T08:49:00.327Z,4.10
2018-02-16T08:51:27.852Z,3.80
2018-02-16T08:53:55.381Z,4.30
2018-02-16T08:56:22.990Z,4.13
2018-02-16T08:58:51.249Z,3.63
2018-02-16T09:01:19.499Z,3.97
2018-02-16T09:03:47.119Z,2.80
2018-02-16T09:06:14.652Z,4.10
2018-02-16T09:08:42.920Z,3.60
2018-02-16T09:11:11.225Z,3.00
2018-02-16T09:13:38.739Z,3.60
2018-02-16T09:16:07.004Z,2.83
2018-02-16T09:18:35.293Z,3.10
2018-02-16T09:21:03.593Z,3.50
2018-02-16T09:23:31.143Z,3.30
2018-02-16T09:25:59.517Z,3.70
2018-02-16T09:28:27.758Z,3.60
2018-02-16T09:30:55.385Z,3.70
2018-02-16T09:33:22.960Z,3.87
2018-02-16T09:35:51.296Z,3.70
2018-02-16T09:38:18.785Z,3.97
2018-02-16T09:40:46.281Z,4.10
2018-02-16T09:43:14.539Z,3.97
2018-02-16T09:45:42.102Z,3.60
2018-02-16T09:48:10.376Z,3.80
2018-02-16T09:50:37.953Z,3.80
2018-02-16T09:53:06.214Z,4.10
2018-02-16T09:55:33.787Z,3.90
2018-02-16T09:58:02.064Z,5.53
2018-02-16T10:00:29.603Z,4.90
2018-02-16T10:02:57.187Z,4.50
2018-02-16T10:05:25.451Z,4.00
2018-02-16T10:07:52.967Z,3.90
2018-02-16T10:10:20.480Z,3.60
2018-02-16T10:12:47.988Z,3.80
2018-02-16T10:15:15.582Z,4.67
2018-02-16T10:17:43.852Z,5.33
2018-02-16T10:20:12.126Z,3.27
2018-02-16T10:22:40.413Z,4.17
2018-02-16T10:25:08.658Z,3.97
2018-02-16T10:27:36.172Z,3.47
2018-02-16T10:30:03.742Z,2.73
2018-02-16T10:32:31.220Z,2.57
2018-02-16T10:34:58.719Z,2.80
2018-02-16T10:37:26.225Z,2.43
2018-02-16T10:39:53.708Z,2.47
2018-02-16T10:42:21.206Z,2.77
2018-02-16T10:44:48.700Z,3.03
2018-02-16T10:47:16.229Z,2.53
2018-02-16T10:49:43.739Z,2.57
2018-02-16T10:52:12.023Z,2.27
2018-02-16T10:54:40.270Z,3.10
2018-02-16T10:57:07.888Z,2.00
2018-02-16T10:59:35.433Z,10.80
2018-02-16T11:02:08.640Z,2.40
2018-02-16T11:04:42.648Z,3.00
2018-02-16T11:10:12.977Z,2.20
2018-02-16T11:12:40.473Z,2.47
2018-02-16T11:15:08.041Z,2.50
2018-02-16T11:17:35.645Z,2.23
2018-02-16T11:20:03.229Z,2.60
2018-02-16T11:22:30.762Z,2.20
2018-02-16T11:24:58.265Z,2.40
2018-02-16T11:27:25.757Z,2.50
2018-02-16T11:29:54.041Z,2.90
2018-02-16T11:32:21.621Z,2.90
2018-02-16T11:34:49.188Z,3.30
2018-02-16T11:37:16.678Z,2.60
2018-02-16T11:39:45.684Z,3.03
2018-02-16T11:42:13.986Z,2.80
2018-02-16T11:44:41.476Z,2.77
2018-02-16T11:47:08.947Z,2.60
2018-02-16T11:49:36.450Z,2.93
2018-02-16T11:52:04.845Z,3.07
2018-02-16T11:54:32.330Z,3.50
2018-02-16T11:56:59.839Z,3.20
2018-02-16T11:59:27.421Z,3.50
2018-02-16T12:01:55.065Z,3.50
2018-02-16T12:04:22.604Z,4.70
2018-02-16T12:06:50.129Z,3.40
2018-02-16T12:09:17.622Z,2.87
2018-02-16T12:11:45.902Z,3.57
2018-02-16T12:14:14.160Z,4.90
2018-02-16T12:16:42.468Z,3.57
2018-02-16T12:19:09.999Z,4.03
2018-02-16T12:21:38.316Z,2.70
2018-02-16T12:24:15.761Z,2.90
2018-02-16T12:26:44.066Z,3.00
2018-02-16T12:29:11.564Z,3.10
2018-02-16T12:31:39.069Z,3.17
2018-02-16T12:34:06.614Z,3.00
2018-02-16T12:36:34.881Z,3.40
2018-02-16T12:39:03.197Z,3.67
2018-02-16T12:41:30.705Z,3.23
2018-02-16T12:43:58.998Z,3.67
2018-02-16T12:46:27.279Z,3.80
2018-02-16T12:48:54.821Z,2.93
2018-02-16T12:51:23.119Z,3.40
2018-02-16T12:53:50.615Z,5.43
2018-02-16T12:56:18.104Z,4.43
2018-02-16T12:58:46.610Z,4.17
2018-02-16T13:01:14.319Z,3.73
2018-02-16T13:03:41.808Z,4.33
2018-02-16T13:06:09.344Z,3.80
2018-02-16T13:08:36.848Z,6.17
2018-02-16T13:11:04.344Z,3.67
2018-02-16T13:13:31.818Z,3.70
2018-02-16T13:15:59.422Z,4.43
2018-02-16T13:18:26.969Z,4.47
2018-02-16T13:20:54.528Z,4.13
2018-02-16T13:23:22.032Z,3.53
2018-02-16T13:25:49.536Z,3.90
2018-02-16T13:28:17.024Z,3.50
2018-02-16T13:30:44.564Z,4.20
2018-02-16T13:33:12.056Z,3.97
2018-02-16T13:35:39.544Z,4.60
2018-02-16T13:38:07.821Z,4.67
2018-02-16T13:40:36.063Z,4.10
2018-02-16T13:43:03.645Z,3.97
2018-02-16T13:45:31.133Z,3.20
2018-02-16T13:47:58.631Z,3.17
2018-02-16T13:50:26.106Z,4.10
2018-02-16T13:52:53.673Z,3.13
2018-02-16T13:55:21.977Z,3.73
2018-02-16T13:57:49.491Z,3.53
2018-02-16T14:00:17.000Z,3.10
2018-02-16T14:02:44.487Z,3.27
2018-02-16T14:05:11.982Z,3.37
2018-02-16T14:07:40.227Z,3.70
2018-02-16T14:10:07.784Z,3.73
2018-02-16T14:12:35.264Z,3.13
2018-02-16T14:15:03.607Z,4.07
2018-02-16T14:17:31.118Z,4.00
2018-02-16T14:19:58.669Z,4.07
2018-02-16T14:22:27.040Z,4.10
2018-02-16T14:24:55.315Z,3.73
2018-02-16T14:27:23.575Z,4.70
2018-02-16T14:29:51.094Z,4.70
2018-02-16T14:32:18.620Z,4.73
2018-02-16T14:34:46.108Z,4.40
2018-02-16T14:37:13.614Z,5.00
2018-02-16T14:39:41.913Z,4.93
2018-02-16T14:42:09.417Z,5.23
2018-02-16T14:44:36.912Z,6.77
2018-02-16T14:47:05.206Z,6.63
2018-02-16T14:49:32.716Z,7.13
2018-02-16T14:52:00.207Z,7.20
2018-02-16T14:54:27.747Z,6.93
2018-02-16T14:56:56.004Z,7.20
2018-02-16T14:59:23.601Z,8.90
2018-02-16T15:01:51.151Z,8.40
2018-02-16T15:04:18.677Z,9.03
2018-02-16T15:06:46.292Z,9.40
2018-02-16T15:09:13.784Z,10.83
2018-02-16T15:11:41.297Z,13.07
2018-02-16T15:14:08.822Z,10.40
2018-02-16T15:16:37.062Z,11.60
2018-02-16T15:19:04.675Z,10.20
2018-02-16T15:21:32.229Z,12.03
2018-02-16T15:23:59.722Z,11.33
2018-02-16T15:26:27.215Z,12.10
2018-02-16T15:28:54.703Z,12.80
2018-02-16T15:31:22.265Z,13.10
2018-02-16T15:33:49.762Z,12.30
2018-02-16T15:36:17.239Z,15.10
2018-02-16T15:38:44.741Z,13.73
2018-02-16T15:41:12.277Z,14.60
2018-02-16T15:43:40.645Z,15.00
2018-02-16T15:46:08.219Z,15.93
2018-02-16T15:48:35.719Z,14.97
2018-02-16T15:51:03.228Z,17.60
2018-02-16T15:53:30.734Z,17.97
2018-02-16T15:55:58.265Z,16.47
2018-02-16T15:58:25.770Z,15.83
2018-02-16T16:00:53.272Z,15.20
2018-02-16T16:03:20.751Z,17.60
2018-02-16T16:05:48.372Z,16.77
2018-02-16T16:08:15.862Z,16.70
2018-02-16T16:10:43.350Z,15.80
2018-02-16T16:13:10.859Z,17.40
2018-02-16T16:15:38.415Z,18.63
2018-02-16T16:18:06.041Z,18.57
2018-02-16T16:20:34.316Z,17.00
2018-02-16T16:23:02.591Z,17.90
2018-02-16T16:25:30.978Z,18.27
2018-02-16T16:27:58.481Z,16.47
2018-02-16T16:30:25.990Z,18.17
2018-02-16T16:32:54.276Z,19.50
2018-02-16T16:35:21.848Z,18.70
2018-02-16T16:37:49.386Z,18.87
2018-02-16T16:40:16.930Z,19.00
2018-02-16T16:42:45.365Z,18.10
2018-02-16T16:45:12.883Z,19.93
2018-02-16T16:47:40.437Z,21.73
2018-02-16T16:50:08.693Z,19.73
2018-02-16T16:52:37.054Z,20.03
2018-02-16T16:55:04.645Z,18.33
2018-02-16T16:57:32.906Z,19.87
2018-02-16T17:00:01.195Z,20.53
2018-02-16T17:02:28.875Z,19.87
2018-02-16T17:04:56.372Z,19.60
2018-02-16T17:07:23.901Z,22.47
2018-02-16T17:09:51.411Z,22.20
2018-02-16T17:12:19.704Z,21.60
2018-02-16T17:14:47.278Z,20.27
2018-02-16T17:17:14.823Z,19.40
2018-02-16T17:19:42.328Z,21.80
2018-02-16T17:22:09.815Z,20.93
2018-02-16T17:24:38.103Z,21.20
2018-02-16T17:27:06.347Z,21.60
2018-02-16T17:29:33.904Z,24.50
2018-02-16T17:32:01.399Z,24.43
2018-02-16T17:34:29.121Z,22.13
2018-02-16T17:36:56.675Z,21.23
2018-02-16T17:39:24.931Z,23.83
2018-02-16T17:41:52.448Z,22.43
2018-02-16T17:44:19.960Z,22.60
2018-02-16T17:46:47.513Z,24.03
2018-02-16T17:49:15.008Z,21.30
2018-02-16T17:51:43.273Z,22.57
2018-02-16T17:54:11.543Z,23.60
2018-02-16T17:56:39.113Z,24.50
2018-02-16T17:59:07.389Z,23.47
2018-02-16T18:01:35.643Z,23.70
2018-02-16T18:04:03.167Z,24.40
2018-02-16T18:06:30.685Z,33.03
2018-02-16T18:08:58.243Z,26.30
2018-02-16T18:11:25.797Z,24.43
2018-02-16T18:13:54.057Z,25.73
2018-02-16T18:16:22.329Z,25.40
2018-02-16T18:18:50.627Z,26.20
2018-02-16T18:21:18.115Z,25.80
2018-02-16T18:23:45.631Z,25.30
2018-02-16T18:26:13.956Z,24.07
2018-02-16T18:28:41.450Z,23.43
2018-02-16T18:31:09.736Z,23.87
2018-02-16T18:33:38.006Z,24.90
2018-02-16T18:36:06.280Z,24.37
2018-02-16T18:38:34.539Z,24.60
2018-02-16T18:41:02.051Z,27.97
2018-02-16T18:43:30.473Z,24.73
2018-02-16T18:45:57.962Z,24.00
2018-02-16T18:48:25.530Z,25.53
2018-02-16T18:50:53.016Z,26.03
2018-02-16T18:53:20.568Z,27.00
2018-02-16T18:55:48.183Z,24.77
2018-02-16T18:58:16.463Z,26.20
2018-02-16T19:00:44.739Z,26.90
2018-02-16T19:03:12.246Z,28.07
2018-02-16T19:05:39.876Z,28.03
2018-02-16T19:08:07.363Z,26.20
2018-02-16T19:10:34.868Z,26.10
2018-02-16T19:13:02.425Z,25.80
2018-02-16T19:15:30.104Z,32.20
2018-02-16T19:17:57.605Z,27.20
2018-02-16T19:20:25.122Z,29.13
2018-02-16T19:22:52.653Z,28.10
2018-02-16T19:25:20.156Z,27.80
2018-02-16T19:27:47.642Z,27.70
2018-02-16T19:30:15.149Z,27.03
2018-02-16T19:32:42.644Z,27.50
2018-02-16T19:35:10.160Z,27.53
2018-02-16T19:37:37.687Z,25.33
2018-02-16T19:40:05.957Z,27.20
2018-02-16T19:42:34.245Z,27.57
2018-02-16T19:45:01.745Z,26.43
2018-02-16T19:47:29.251Z,28.07
2018-02-16T19:49:57.510Z,27.63
2018-02-16T19:52:25.016Z,28.40
2018-02-16T19:54:52.555Z,28.07
2018-02-16T19:57:20.113Z,26.10
2018-02-16T19:59:47.669Z,26.87
2018-02-16T20:02:15.161Z,24.50
2018-02-16T20:04:42.777Z,28.10
2018-02-16T20:07:11.036Z,27.00
2018-02-16T20:09:39.312Z,29.10
2018-02-16T20:12:07.589Z,28.90
2018-02-16T20:14:35.896Z,29.33
2018-02-16T20:17:03.400Z,26.90
2018-02-16T20:19:30.987Z,27.60
2018-02-16T20:21:59.247Z,26.93
2018-02-16T20:24:27.538Z,23.33
2018-02-16T20:26:55.820Z,24.83
2018-02-16T20:29:23.345Z,25.50
2018-02-16T20:31:50.936Z,27.13
2018-02-16T20:34:18.440Z,27.20
2018-02-16T20:36:45.938Z,27.03
2018-02-16T20:39:13.505Z,28.00
2018-02-16T20:41:41.077Z,28.33
2018-02-16T20:44:08.621Z,26.07
2018-02-16T20:46:36.145Z,30.53
2018-02-16T20:49:03.654Z,28.90
2018-02-16T20:51:31.153Z,26.13
2018-02-16T20:53:58.651Z,26.17
2018-02-16T20:56:26.143Z,27.73
2018-02-16T20:58:53.661Z,26.97
2018-02-16T21:01:21.179Z,26.40
2018-02-16T21:03:48.675Z,24.93
2018-02-16T21:06:16.180Z,25.80
2018-02-16T21:08:43.671Z,26.47
2018-02-16T21:11:11.935Z,25.40
2018-02-16T21:13:39.535Z,25.50
2018-02-16T21:16:07.037Z,25.73
2018-02-16T21:18:34.523Z,25.13
2018-02-16T21:21:02.057Z,26.37
2018-02-16T21:23:29.656Z,27.20
2018-02-16T21:25:57.152Z,26.97
2018-02-16T21:28:24.791Z,30.20
2018-02-16T21:30:53.385Z,28.90
2018-02-16T21:33:20.888Z,27.50
2018-02-16T21:35:49.185Z,29.40
2018-02-16T21:38:16.666Z,30.57
2018-02-16T21:40:44.172Z,27.10
2018-02-16T21:43:12.483Z,28.33
2018-02-16T21:45:39.967Z,28.00
2018-02-16T21:48:07.494Z,28.07
2018-02-16T21:50:35.033Z,29.60
2018-02-16T21:53:03.271Z,28.43
2018-02-16T21:55:30.767Z,31.07
2018-02-16T21:57:58.285Z,30.93
2018-02-16T22:00:25.806Z,31.00
2018-02-16T22:02:53.302Z,28.30
2018-02-16T22:05:20.827Z,31.90
2018-02-16T22:07:48.325Z,28.77
2018-02-16T22:10:16.593Z,31.03
2018-02-16T22:12:44.119Z,29.13
2018-02-16T22:15:11.653Z,31.40
2018-02-16T22:17:39.138Z,27.77
2018-02-16T22:20:06.655Z,29.80
2018-02-16T22:22:34.161Z,30.17
2018-02-16T22:25:01.678Z,27.57
2018-02-16T22:27:29.223Z,24.80
2018-02-16T22:29:56.727Z,26.87
2018-02-16T22:32:24.215Z,26.63
2018-02-16T22:34:52.577Z,27.50
2018-02-16T22:37:20.167Z,29.20
2018-02-16T22:39:47.665Z,28.47
2018-02-16T22:42:15.202Z,27.77
2018-02-16T22:44:42.756Z,27.67
2018-02-16T22:47:10.286Z,27.53
2018-02-16T22:49:38.557Z,29.10
2018-02-16T22:52:06.842Z,26.40
2018-02-16T22:54:35.163Z,23.90
2018-02-16T22:57:02.663Z,22.90
2018-02-16T22:59:30.957Z,25.00
2018-02-16T23:01:58.597Z,22.27
2018-02-16T23:04:26.897Z,24.70
2018-02-16T23:06:54.468Z,25.80
2018-02-16T23:09:22.027Z,23.77
2018-02-16T23:11:49.520Z,23.63
2018-02-16T23:14:17.056Z,25.87
2018-02-16T23:16:44.564Z,26.80
2018-02-16T23:19:12.831Z,25.10
2018-02-16T23:21:41.095Z,23.23
2018-02-16T23:24:08.702Z,24.63
2018-02-16T23:26:36.225Z,24.37
2018-02-16T23:29:04.481Z,25.20
2018-02-16T23:31:32.003Z,27.87
2018-02-16T23:33:59.581Z,26.60
2018-02-16T23:36:27.106Z,25.30
2018-02-16T23:38:54.613Z,29.90
2018-02-16T23:41:22.110Z,24.23
2018-02-16T23:43:49.572Z,28.23
2018-02-16T23:46:17.191Z,28.10
2018-02-16T23:48:44.754Z,27.30
2018-02-16T23:51:12.273Z,26.80
2018-02-16T23:53:39.769Z,27.13
2018-02-16T23:56:07.294Z,26.63
2018-02-16T23:58:34.804Z,23.63
